createdAt,value
2019-01-28T00:02:07.389Z,2.38
2019-01-28T00:04:38.812Z,2.38
2019-01-28T00:07:09.078Z,2.36
2019-01-28T00:09:40.474Z,2.40
2019-01-28T00:12:11.013Z,2.42
2019-01-28T00:14:43.981Z,2.46
2019-01-28T00:17:14.832Z,2.48
2019-01-28T00:19:45.041Z,2.45
2019-01-28T00:22:15.277Z,2.41
2019-01-28T00:24:45.784Z,2.38
2019-01-28T00:27:17.572Z,2.29
2019-01-28T00:29:47.782Z,2.33
2019-01-28T00:32:18.010Z,2.33
2019-01-28T00:34:54.201Z,2.32
2019-01-28T00:37:29.249Z,2.31
2019-01-28T00:40:02.186Z,2.28
2019-01-28T00:42:33.648Z,2.30
2019-01-28T00:45:07.474Z,2.35
2019-01-28T00:47:38.837Z,2.35
2019-01-28T00:50:11.446Z,2.38
2019-01-28T00:52:42.831Z,2.41
2019-01-28T00:55:14.429Z,2.42
2019-01-28T00:57:44.817Z,2.46
2019-01-28T01:00:23.704Z,2.47
2019-01-28T01:02:55.097Z,2.41
2019-01-28T01:05:26.221Z,2.30
2019-01-28T01:07:57.382Z,2.46
2019-01-28T01:10:27.605Z,2.48
2019-01-28T01:12:58.753Z,2.51
2019-01-28T01:15:29.873Z,2.46
2019-01-28T01:18:01.049Z,2.55
2019-01-28T01:20:32.466Z,2.53
2019-01-28T01:23:03.998Z,2.50
2019-01-28T01:25:35.372Z,2.54
2019-01-28T01:28:06.531Z,2.49
2019-01-28T01:30:37.659Z,2.57
2019-01-28T01:33:08.816Z,2.61
2019-01-28T01:35:39.940Z,2.55
2019-01-28T01:38:11.116Z,2.54
2019-01-28T01:40:43.454Z,2.57
2019-01-28T01:43:14.642Z,2.54
2019-01-28T01:45:46.976Z,2.50
2019-01-28T01:48:18.143Z,2.47
2019-01-28T01:50:50.502Z,2.39
2019-01-28T01:53:20.736Z,2.38
2019-01-28T01:55:50.947Z,2.29
2019-01-28T01:58:21.179Z,2.26
2019-01-28T02:00:51.390Z,2.27
2019-01-28T02:03:21.635Z,2.33
2019-01-28T02:05:51.839Z,2.37
2019-01-28T02:08:22.988Z,2.37
2019-01-28T02:10:53.199Z,2.33
2019-01-28T02:13:23.433Z,2.26
2019-01-28T02:15:53.643Z,2.25
2019-01-28T02:18:23.881Z,2.24
2019-01-28T02:20:54.090Z,2.23
2019-01-28T02:23:25.253Z,2.16
2019-01-28T02:25:55.457Z,2.10
2019-01-28T02:28:25.694Z,1.99
2019-01-28T02:30:55.903Z,1.98
2019-01-28T02:33:26.154Z,1.89
2019-01-28T02:35:56.355Z,1.90
2019-01-28T02:38:26.584Z,1.87
2019-01-28T02:40:56.791Z,1.82
2019-01-28T02:43:27.032Z,1.77
2019-01-28T02:45:57.237Z,1.75
2019-01-28T02:48:27.480Z,1.75
2019-01-28T02:50:58.598Z,1.68
2019-01-28T02:53:28.844Z,1.67
2019-01-28T02:55:59.059Z,1.68
2019-01-28T02:58:29.589Z,1.71
2019-01-28T03:00:59.799Z,1.71
2019-01-28T03:03:30.041Z,1.70
2019-01-28T03:06:00.250Z,1.70
2019-01-28T03:08:30.483Z,1.85
2019-01-28T03:11:00.691Z,1.94
2019-01-28T03:13:30.925Z,2.02
2019-01-28T03:16:01.148Z,2.04
2019-01-28T03:18:31.384Z,2.08
2019-01-28T03:21:02.801Z,2.12
2019-01-28T03:23:33.215Z,2.14
2019-01-28T03:26:03.562Z,2.15
2019-01-28T03:28:33.803Z,2.17
2019-01-28T03:31:04.938Z,2.17
2019-01-28T03:33:35.166Z,2.17
2019-01-28T03:36:05.673Z,2.20
2019-01-28T03:38:37.145Z,2.20
2019-01-28T03:41:07.357Z,2.18
2019-01-28T03:43:38.513Z,2.24
2019-01-28T03:46:09.838Z,2.29
2019-01-28T03:48:40.505Z,2.29
2019-01-28T03:51:10.706Z,2.37
2019-01-28T03:53:41.406Z,2.35
2019-01-28T03:56:11.615Z,2.35
2019-01-28T03:58:42.002Z,2.47
2019-01-28T04:01:12.208Z,2.51
2019-01-28T04:03:42.448Z,2.53
2019-01-28T04:06:12.650Z,2.59
2019-01-28T04:08:43.507Z,2.66
2019-01-28T04:11:13.709Z,2.67
2019-01-28T04:13:43.947Z,2.62
2019-01-28T04:16:14.159Z,2.54
2019-01-28T04:18:44.389Z,2.49
2019-01-28T04:21:14.598Z,2.42
2019-01-28T04:23:44.840Z,2.34
2019-01-28T04:26:16.087Z,2.34
2019-01-28T04:28:51.776Z,2.30
2019-01-28T04:31:21.957Z,2.25
2019-01-28T04:33:53.417Z,2.18
2019-01-28T04:36:23.620Z,2.15
2019-01-28T04:38:56.123Z,2.09
2019-01-28T04:41:25.897Z,2.09
2019-01-28T04:43:57.975Z,2.16
2019-01-28T04:46:28.196Z,2.23
2019-01-28T04:48:58.426Z,2.30
2019-01-28T04:51:28.628Z,2.38
2019-01-28T04:53:58.852Z,2.53
2019-01-28T04:56:29.074Z,2.58
2019-01-28T04:58:59.295Z,2.66
2019-01-28T05:01:29.501Z,2.63
2019-01-28T05:03:59.725Z,2.65
2019-01-28T05:06:29.939Z,2.67
2019-01-28T05:09:00.166Z,2.76
2019-01-28T05:11:30.384Z,2.75
2019-01-28T05:14:07.968Z,2.73
2019-01-28T05:16:38.551Z,2.78
2019-01-28T05:19:09.854Z,2.76
2019-01-28T05:21:40.213Z,2.77
2019-01-28T05:24:10.448Z,2.88
2019-01-28T05:26:40.658Z,2.90
2019-01-28T05:29:11.206Z,2.93
2019-01-28T05:31:41.409Z,2.90
2019-01-28T05:34:11.657Z,2.84
2019-01-28T05:36:41.861Z,2.87
2019-01-28T05:39:12.091Z,2.88
2019-01-28T05:41:42.300Z,2.93
2019-01-28T05:44:13.455Z,2.92
2019-01-28T05:46:43.667Z,2.95
2019-01-28T05:49:13.913Z,2.88
2019-01-28T05:51:44.585Z,2.88
2019-01-28T05:54:15.906Z,2.80
2019-01-28T05:56:46.110Z,2.72
2019-01-28T05:59:16.345Z,2.75
2019-01-28T06:01:46.570Z,2.64
2019-01-28T06:04:18.019Z,2.75
2019-01-28T06:06:48.308Z,2.78
2019-01-28T06:09:19.696Z,2.82
2019-01-28T06:11:49.923Z,2.87
2019-01-28T06:14:21.370Z,2.75
2019-01-28T06:16:52.793Z,2.82
2019-01-28T06:19:23.032Z,2.75
2019-01-28T06:21:54.164Z,2.71
2019-01-28T06:24:25.314Z,2.69
2019-01-28T06:26:56.450Z,2.78
2019-01-28T06:29:27.608Z,2.83
2019-01-28T06:32:00.884Z,2.81
2019-01-28T06:34:32.051Z,2.77
2019-01-28T06:37:02.256Z,2.90
2019-01-28T06:39:33.415Z,2.81
2019-01-28T06:42:03.623Z,2.75
2019-01-28T06:44:34.770Z,2.76
2019-01-28T06:47:04.976Z,2.84
2019-01-28T06:49:35.219Z,2.92
2019-01-28T06:52:05.426Z,2.94
2019-01-28T06:54:37.818Z,2.98
2019-01-28T06:57:08.016Z,2.97
2019-01-28T06:59:38.248Z,2.99
2019-01-28T07:02:08.465Z,2.99
2019-01-28T07:04:38.704Z,3.10
2019-01-28T07:07:10.558Z,3.21
2019-01-28T07:09:41.318Z,3.25
2019-01-28T07:12:11.530Z,3.22
2019-01-28T07:14:41.763Z,3.23
2019-01-28T07:17:11.967Z,3.35
2019-01-28T07:19:42.195Z,3.43
2019-01-28T07:22:12.405Z,3.45
2019-01-28T07:24:44.462Z,3.47
2019-01-28T07:27:14.762Z,3.44
2019-01-28T07:29:45.275Z,3.42
2019-01-28T07:32:16.665Z,3.45
2019-01-28T07:34:46.922Z,3.51
2019-01-28T07:37:17.144Z,3.43
2019-01-28T07:39:47.419Z,3.47
2019-01-28T07:42:18.790Z,3.53
2019-01-28T07:44:49.045Z,3.48
2019-01-28T07:47:20.458Z,3.58
2019-01-28T07:49:50.694Z,3.66
2019-01-28T07:52:20.904Z,3.67
2019-01-28T07:54:51.144Z,3.63
2019-01-28T07:57:21.358Z,3.62
2019-01-28T07:59:51.584Z,3.71
2019-01-28T08:02:21.802Z,3.69
2019-01-28T08:04:52.040Z,3.66
2019-01-28T08:07:22.248Z,3.65
2019-01-28T08:09:52.482Z,3.68
2019-01-28T08:12:22.699Z,3.78
2019-01-28T08:14:52.937Z,3.86
2019-01-28T08:17:23.178Z,3.95
2019-01-28T08:19:54.616Z,4.02
2019-01-28T08:22:24.827Z,4.05
2019-01-28T08:24:55.078Z,3.86
2019-01-28T08:27:26.477Z,3.82
2019-01-28T08:29:56.713Z,3.73
2019-01-28T08:32:26.934Z,3.69
2019-01-28T08:34:57.467Z,3.68
2019-01-28T08:37:27.681Z,3.59
2019-01-28T08:39:57.929Z,3.54
2019-01-28T08:42:28.139Z,3.60
2019-01-28T08:44:59.304Z,3.54
2019-01-28T08:47:30.705Z,3.56
2019-01-28T08:50:00.969Z,3.53
2019-01-28T08:52:31.177Z,3.57
2019-01-28T08:55:02.321Z,3.55
2019-01-28T08:57:32.534Z,3.53
2019-01-28T09:00:03.143Z,3.51
2019-01-28T09:02:33.631Z,3.58
2019-01-28T09:05:06.999Z,3.60
2019-01-28T09:07:37.406Z,3.66
2019-01-28T09:10:11.185Z,3.77
2019-01-28T09:12:47.285Z,3.72
2019-01-28T09:15:21.928Z,3.81
2019-01-28T09:18:00.917Z,3.74
2019-01-28T09:20:35.794Z,3.77
2019-01-28T09:23:07.942Z,3.82
2019-01-28T09:25:38.176Z,3.94
2019-01-28T09:28:08.388Z,4.03
2019-01-28T09:30:38.918Z,4.03
2019-01-28T09:33:09.126Z,4.26
2019-01-28T09:35:39.363Z,4.40
2019-01-28T09:38:09.580Z,4.60
2019-01-28T09:40:39.810Z,4.74
2019-01-28T09:43:11.646Z,4.95
2019-01-28T09:45:43.455Z,5.07
2019-01-28T09:48:15.230Z,5.13
2019-01-28T09:50:45.925Z,5.22
2019-01-28T09:53:16.134Z,5.21
2019-01-28T09:55:48.511Z,5.22
2019-01-28T09:58:18.727Z,5.03
2019-01-28T10:00:51.515Z,4.98
2019-01-28T10:03:24.430Z,5.01
2019-01-28T10:05:54.929Z,4.98
2019-01-28T10:08:25.140Z,4.90
2019-01-28T10:10:55.386Z,4.93
2019-01-28T10:13:25.588Z,4.94
2019-01-28T10:15:59.590Z,4.91
2019-01-28T10:18:31.655Z,4.77
2019-01-28T10:21:03.041Z,4.84
2019-01-28T10:23:34.794Z,4.93
2019-01-28T10:26:05.195Z,5.00
2019-01-28T10:28:35.524Z,5.26
2019-01-28T10:31:12.380Z,5.48
2019-01-28T10:33:49.044Z,5.54
2019-01-28T10:36:23.040Z,5.36
2019-01-28T10:38:54.236Z,5.36
2019-01-28T10:41:24.486Z,5.35
2019-01-28T10:43:54.695Z,5.23
2019-01-28T10:46:24.942Z,5.32
2019-01-28T10:48:55.431Z,5.38
2019-01-28T10:51:25.688Z,5.34
2019-01-28T10:53:57.117Z,5.53
2019-01-28T10:56:28.273Z,5.44
2019-01-28T10:58:59.395Z,5.49
2019-01-28T11:01:31.812Z,5.53
2019-01-28T11:04:02.061Z,5.78
2019-01-28T11:06:32.541Z,5.57
2019-01-28T11:09:05.300Z,5.72
2019-01-28T11:11:37.669Z,5.68
2019-01-28T11:14:09.131Z,5.65
2019-01-28T11:16:40.622Z,5.69
2019-01-28T11:19:11.004Z,5.40
2019-01-28T11:21:43.497Z,5.31
2019-01-28T11:24:15.798Z,5.40
2019-01-28T11:26:46.936Z,5.37
2019-01-28T11:29:20.915Z,5.30
2019-01-28T11:31:51.442Z,5.31
2019-01-28T11:34:33.288Z,5.28
2019-01-28T11:37:05.755Z,5.23
2019-01-28T11:39:39.156Z,5.13
2019-01-28T11:42:09.920Z,5.16
2019-01-28T11:44:41.219Z,5.22
2019-01-28T11:47:13.720Z,5.23
2019-01-28T11:49:49.234Z,5.35
2019-01-28T11:52:19.751Z,5.36
2019-01-28T11:54:50.089Z,5.35
2019-01-28T11:57:21.548Z,5.29
2019-01-28T11:59:53.000Z,5.35
2019-01-28T12:02:24.956Z,5.36
2019-01-28T12:04:55.476Z,5.37
2019-01-28T12:07:25.788Z,5.41
2019-01-28T12:09:59.164Z,5.36
2019-01-28T12:12:33.916Z,5.36
2019-01-28T12:15:15.646Z,5.36
2019-01-28T12:17:46.966Z,5.43
2019-01-28T12:20:19.427Z,5.48
2019-01-28T12:22:49.893Z,5.44
2019-01-28T12:25:21.307Z,5.36
2019-01-28T12:27:54.407Z,5.26
2019-01-28T12:30:28.957Z,5.23
2019-01-28T12:32:59.467Z,5.29
2019-01-28T12:35:29.978Z,5.32
2019-01-28T12:38:00.515Z,5.33
2019-01-28T12:40:31.740Z,5.23
2019-01-28T12:43:02.134Z,5.25
2019-01-28T12:45:33.527Z,5.19
2019-01-28T12:48:04.706Z,5.17
2019-01-28T12:50:36.326Z,5.15
2019-01-28T12:53:09.870Z,5.16
2019-01-28T12:55:44.268Z,5.20
2019-01-28T12:58:17.576Z,5.27
2019-01-28T13:00:50.661Z,5.21
2019-01-28T13:03:21.088Z,5.23
2019-01-28T13:05:51.313Z,5.24
2019-01-28T13:08:21.603Z,5.37
2019-01-28T13:10:52.640Z,5.32
2019-01-28T13:13:23.817Z,5.28
2019-01-28T13:15:55.265Z,5.20
2019-01-28T13:18:26.739Z,5.17
2019-01-28T13:20:58.149Z,5.18
2019-01-28T13:23:29.669Z,5.18
2019-01-28T13:26:01.369Z,5.18
2019-01-28T13:28:32.535Z,5.09
2019-01-28T13:31:03.959Z,5.07
2019-01-28T13:33:35.123Z,5.13
2019-01-28T13:36:09.305Z,5.23
2019-01-28T13:38:38.638Z,5.23
2019-01-28T13:41:09.759Z,5.31
2019-01-28T13:43:43.888Z,5.31
2019-01-28T13:46:15.124Z,5.31
2019-01-28T13:48:47.823Z,5.36
2019-01-28T13:51:19.250Z,5.23
2019-01-28T13:53:50.417Z,5.23
2019-01-28T13:56:24.694Z,5.24
2019-01-28T13:58:55.229Z,5.25
2019-01-28T14:01:25.451Z,5.26
2019-01-28T14:03:55.693Z,5.27
2019-01-28T14:06:26.108Z,5.33
2019-01-28T14:08:57.271Z,5.27
2019-01-28T14:11:29.625Z,5.24
2019-01-28T14:13:59.877Z,5.24
2019-01-28T14:16:30.083Z,5.20
2019-01-28T14:19:02.286Z,5.06
2019-01-28T14:21:32.654Z,5.06
2019-01-28T14:24:03.819Z,5.01
2019-01-28T14:26:34.950Z,4.96
2019-01-28T14:29:06.116Z,4.94
2019-01-28T14:31:37.240Z,4.93
2019-01-28T14:34:09.663Z,4.94
2019-01-28T14:36:41.082Z,4.87
2019-01-28T14:39:13.696Z,4.85
2019-01-28T14:41:45.835Z,4.82
2019-01-28T14:44:16.991Z,4.82
2019-01-28T14:46:49.344Z,4.81
2019-01-28T14:49:22.816Z,4.79
2019-01-28T14:51:57.766Z,4.79
2019-01-28T14:54:28.041Z,4.76
2019-01-28T14:56:58.261Z,4.72
2019-01-28T14:59:29.094Z,4.68
2019-01-28T15:02:03.027Z,4.64
2019-01-28T15:04:34.447Z,4.63
2019-01-28T15:07:05.892Z,4.56
2019-01-28T15:09:37.341Z,4.45
2019-01-28T15:12:08.869Z,4.43
2019-01-28T15:14:42.150Z,4.35
2019-01-28T15:17:14.252Z,4.33
2019-01-28T15:19:50.642Z,4.34
2019-01-28T15:22:20.415Z,4.34
2019-01-28T15:24:51.576Z,4.36
2019-01-28T15:27:24.855Z,4.34
2019-01-28T15:29:55.117Z,4.37
2019-01-28T15:32:26.531Z,4.37
2019-01-28T15:34:56.803Z,4.39
2019-01-28T15:37:28.216Z,4.34
2019-01-28T15:39:59.704Z,4.33
2019-01-28T15:42:33.672Z,4.20
2019-01-28T15:45:11.251Z,4.14
2019-01-28T15:47:36.777Z,4.06
2019-01-28T15:50:11.128Z,4.06
2019-01-28T15:52:42.958Z,4.00
2019-01-28T15:55:21.375Z,3.98
2019-01-28T15:57:53.670Z,3.94
2019-01-28T16:00:28.993Z,3.87
2019-01-28T16:02:59.511Z,3.76
2019-01-28T16:05:29.859Z,3.69
2019-01-28T16:08:00.105Z,3.62
2019-01-28T16:10:30.369Z,3.56
2019-01-28T16:13:00.610Z,3.50
2019-01-28T16:15:53.456Z,3.44
2019-01-28T16:18:34.310Z,4.51
2019-01-28T16:21:05.199Z,3.86
2019-01-28T16:23:36.707Z,3.62
2019-01-28T16:26:06.953Z,3.45
2019-01-28T16:28:40.414Z,3.35
2019-01-28T16:31:14.153Z,3.22
2019-01-28T16:33:47.889Z,3.08
2019-01-28T16:36:19.220Z,2.94
2019-01-28T16:38:50.729Z,2.85
2019-01-28T16:41:22.121Z,2.76
2019-01-28T16:43:52.479Z,2.66
2019-01-28T16:46:24.350Z,2.63
2019-01-28T16:48:54.610Z,2.57
2019-01-28T16:51:25.809Z,2.51
2019-01-28T16:53:57.541Z,2.46
2019-01-28T16:56:27.756Z,2.44
2019-01-28T16:58:58.173Z,2.32
2019-01-28T17:01:28.478Z,2.22
2019-01-28T17:03:58.724Z,2.14
2019-01-28T17:06:31.400Z,2.09
2019-01-28T17:09:03.644Z,2.04
2019-01-28T17:11:35.924Z,1.96
2019-01-28T17:14:07.647Z,1.91
2019-01-28T17:16:38.802Z,1.86
2019-01-28T17:19:10.969Z,1.79
2019-01-28T17:21:43.645Z,1.74
2019-01-28T17:24:13.897Z,1.59
2019-01-28T17:26:44.139Z,1.51
2019-01-28T17:29:15.396Z,1.35
2019-01-28T17:31:48.348Z,1.35
2019-01-28T17:34:18.602Z,1.31
2019-01-28T17:36:50.056Z,1.34
2019-01-28T17:39:21.535Z,1.32
2019-01-28T17:41:52.925Z,1.26
2019-01-28T17:44:23.193Z,1.14
2019-01-28T17:46:54.918Z,1.13
2019-01-28T17:49:26.679Z,1.10
2019-01-28T17:51:56.921Z,1.02
2019-01-28T17:54:27.167Z,0.89
2019-01-28T17:56:57.764Z,0.98
2019-01-28T17:59:31.123Z,0.93
2019-01-28T18:02:02.697Z,0.91
2019-01-28T18:04:34.706Z,0.89
2019-01-28T18:07:10.535Z,0.83
2019-01-28T18:09:42.830Z,0.83
2019-01-28T18:12:18.727Z,0.82
2019-01-28T18:14:51.382Z,0.74
2019-01-28T18:17:25.634Z,0.66
2019-01-28T18:19:58.608Z,0.80
2019-01-28T18:22:31.834Z,0.79
2019-01-28T18:25:07.126Z,0.73
2019-01-28T18:27:39.960Z,0.60
2019-01-28T18:30:28.201Z,0.68
2019-01-28T18:32:58.563Z,0.68
2019-01-28T18:35:29.051Z,0.52
2019-01-28T18:38:00.842Z,0.52
2019-01-28T18:40:33.182Z,0.48
2019-01-28T18:43:05.678Z,0.42
2019-01-28T18:45:37.007Z,0.39
2019-01-28T18:48:08.586Z,0.35
2019-01-28T18:50:40.283Z,0.31
2019-01-28T18:53:11.416Z,0.20
2019-01-28T18:55:44.345Z,0.20
2019-01-28T18:58:14.606Z,-0.15
2019-01-28T19:00:46.030Z,-0.15
2019-01-28T19:03:16.316Z,-0.12
2019-01-28T19:05:49.029Z,-0.14
2019-01-28T19:08:39.368Z,-0.11
2019-01-28T19:11:12.225Z,-0.09
2019-01-28T19:13:50.333Z,-0.10
2019-01-28T19:16:33.629Z,-0.11
2019-01-28T19:19:07.570Z,-0.11
2019-01-28T19:21:41.546Z,-0.13
2019-01-28T19:24:12.728Z,-0.11
2019-01-28T19:26:43.020Z,-0.05
2019-01-28T19:29:13.503Z,-0.08
2019-01-28T19:31:45.847Z,-0.12
2019-01-28T19:34:17.036Z,-0.21
2019-01-28T19:36:51.132Z,-0.31
2019-01-28T19:39:22.526Z,-0.35
2019-01-28T19:41:54.793Z,-0.32
2019-01-28T19:44:25.280Z,-0.34
2019-01-28T19:46:55.519Z,-0.31
2019-01-28T19:49:26.754Z,-0.33
2019-01-28T19:51:57.155Z,-0.36
2019-01-28T19:54:29.977Z,-0.36
2019-01-28T19:57:00.351Z,-0.36
2019-01-28T19:59:34.410Z,-0.36
2019-01-28T20:02:05.576Z,-0.39
2019-01-28T20:04:37.445Z,-0.38
2019-01-28T20:07:08.600Z,-0.41
2019-01-28T20:09:41.410Z,-0.39
2019-01-28T20:12:11.830Z,-0.41
2019-01-28T20:14:42.455Z,-0.41
2019-01-28T20:17:14.431Z,-0.40
2019-01-28T20:19:45.668Z,-0.41
2019-01-28T20:22:16.091Z,-0.39
2019-01-28T20:24:47.591Z,-0.45
2019-01-28T20:27:17.822Z,-0.44
2019-01-28T20:29:50.489Z,-0.46
2019-01-28T20:32:22.996Z,-0.44
2019-01-28T20:34:53.373Z,-0.49
2019-01-28T20:37:24.796Z,-0.49
2019-01-28T20:39:55.789Z,-0.52
2019-01-28T20:42:41.922Z,-0.53
2019-01-28T20:45:24.604Z,-0.51
2019-01-28T20:47:56.732Z,-0.53
2019-01-28T20:50:29.648Z,-0.52
2019-01-28T20:52:59.926Z,-0.46
2019-01-28T20:55:31.425Z,-0.43
2019-01-28T20:58:03.644Z,-0.37
2019-01-28T21:00:34.023Z,-0.32
2019-01-28T21:03:05.357Z,1.82
2019-01-28T21:05:36.167Z,1.09
2019-01-28T21:08:07.958Z,0.63
2019-01-28T21:10:41.589Z,0.39
2019-01-28T21:13:15.320Z,0.19
2019-01-28T21:15:47.657Z,-0.21
2019-01-28T21:18:19.054Z,-0.21
2019-01-28T21:20:50.511Z,-0.19
2019-01-28T21:23:22.490Z,-0.26
2019-01-28T21:25:53.287Z,-0.32
2019-01-28T21:28:25.353Z,-0.34
2019-01-28T21:30:56.799Z,-0.33
2019-01-28T21:33:29.537Z,-0.36
2019-01-28T21:36:19.065Z,-0.40
2019-01-28T21:38:49.608Z,-0.44
2019-01-28T21:41:22.419Z,-0.51
2019-01-28T21:43:54.130Z,-0.56
2019-01-28T21:46:26.291Z,-0.57
2019-01-28T21:48:56.842Z,-0.60
2019-01-28T21:51:28.236Z,-0.61
2019-01-28T21:53:59.862Z,-0.56
2019-01-28T21:56:31.762Z,-0.52
2019-01-28T21:59:02.426Z,-0.47
2019-01-28T22:01:33.246Z,-0.46
2019-01-28T22:04:05.036Z,-0.43
2019-01-28T22:06:36.820Z,-0.34
2019-01-28T22:09:07.647Z,-0.25
2019-01-28T22:11:43.683Z,-0.16
2019-01-28T22:14:19.254Z,-0.11
2019-01-28T22:16:53.187Z,-0.10
2019-01-28T22:19:25.312Z,-0.10
2019-01-28T22:21:59.247Z,-0.08
2019-01-28T22:24:27.824Z,-0.05
2019-01-28T22:26:59.298Z,0.01
2019-01-28T22:29:30.701Z,0.12
2019-01-28T22:32:02.231Z,0.11
2019-01-28T22:34:32.699Z,0.11
2019-01-28T22:37:02.976Z,0.11
2019-01-28T22:39:33.463Z,0.14
2019-01-28T22:42:04.946Z,0.32
2019-01-28T22:44:37.284Z,0.32
2019-01-28T22:47:09.475Z,0.24
2019-01-28T22:49:39.867Z,0.37
2019-01-28T22:52:10.128Z,0.41
2019-01-28T22:54:41.529Z,0.44
2019-01-28T22:57:12.699Z,0.45
2019-01-28T22:59:44.115Z,0.43
2019-01-28T23:02:14.358Z,0.43
2019-01-28T23:04:44.567Z,0.43
2019-01-28T23:07:14.807Z,0.43
2019-01-28T23:09:45.024Z,0.43
2019-01-28T23:12:17.077Z,0.58
2019-01-28T23:14:47.300Z,0.48
2019-01-28T23:17:17.530Z,0.59
2019-01-28T23:19:47.752Z,0.61
2019-01-28T23:22:19.215Z,0.61
2019-01-28T23:24:50.638Z,0.62
2019-01-28T23:27:22.104Z,0.60
2019-01-28T23:29:53.845Z,0.64
2019-01-28T23:32:24.100Z,0.69
2019-01-28T23:34:55.530Z,0.68
2019-01-28T23:37:26.681Z,0.68
2019-01-28T23:39:56.911Z,0.71
2019-01-28T23:42:27.140Z,0.73
2019-01-28T23:44:57.339Z,0.61
2019-01-28T23:47:28.495Z,0.70
2019-01-28T23:49:59.930Z,0.72
2019-01-28T23:52:30.168Z,0.56
2019-01-28T23:55:00.377Z,0.69
2019-01-28T23:57:30.917Z,0.69
